sensor_id;sensor_type;location;lat;lon;timestamp;P1;durP1;ratioP1;P2;durP2;ratioP2
5833;SDS011;2943;48.012;10.968;2023-06-10T00:00:27;9.10;;;8.20;;
5833;SDS011;2943;48.012;10.968;2023-06-10T00:02:56;9.50;;;8.60;;
5833;SDS011;2943;48.012;10.968;2023-06-10T00:05:24;9.60;;;8.60;;
5833;SDS011;2943;48.012;10.968;2023-06-10T00:07:56;13.53;;;9.47;;
5833;SDS011;2943;48.012;10.968;2023-06-10T00:10:23;11.50;;;10.30;;
5833;SDS011;2943;48.012;10.968;2023-06-10T00:12:51;10.87;;;9.03;;
5833;SDS011;2943;48.012;10.968;2023-06-10T00:15:17;12.50;;;8.93;;
5833;SDS011;2943;48.012;10.968;2023-06-10T00:17:44;9.20;;;8.30;;
5833;SDS011;2943;48.012;10.968;2023-06-10T00:20:11;11.37;;;10.03;;
5833;SDS011;2943;48.012;10.968;2023-06-10T00:22:38;11.27;;;9.50;;
5833;SDS011;2943;48.012;10.968;2023-06-10T00:25:08;10.50;;;9.27;;
5833;SDS011;2943;48.012;10.968;2023-06-10T00:27:36;10.40;;;9.30;;
5833;SDS011;2943;48.012;10.968;2023-06-10T00:30:03;10.43;;;9.37;;
5833;SDS011;2943;48.012;10.968;2023-06-10T00:32:32;11.73;;;10.53;;
5833;SDS011;2943;48.012;10.968;2023-06-10T00:34:58;11.40;;;10.30;;
5833;SDS011;2943;48.012;10.968;2023-06-10T00:37:25;9.97;;;8.97;;
5833;SDS011;2943;48.012;10.968;2023-06-10T00:39:53;10.67;;;9.67;;
5833;SDS011;2943;48.012;10.968;2023-06-10T00:42:21;11.60;;;10.40;;
5833;SDS011;2943;48.012;10.968;2023-06-10T00:44:49;11.77;;;9.63;;
5833;SDS011;2943;48.012;10.968;2023-06-10T00:47:16;12.00;;;10.03;;
5833;SDS011;2943;48.012;10.968;2023-06-10T00:49:44;11.43;;;10.20;;
5833;SDS011;2943;48.012;10.968;2023-06-10T00:52:11;10.87;;;9.83;;
5833;SDS011;2943;48.012;10.968;2023-06-10T00:54:39;12.10;;;10.50;;
5833;SDS011;2943;48.012;10.968;2023-06-10T00:57:07;10.00;;;8.93;;
5833;SDS011;2943;48.012;10.968;2023-06-10T00:59:35;14.37;;;9.60;;
5833;SDS011;2943;48.012;10.968;2023-06-10T01:02:03;11.47;;;10.27;;
5833;SDS011;2943;48.012;10.968;2023-06-10T01:04:30;12.50;;;10.93;;
5833;SDS011;2943;48.012;10.968;2023-06-10T01:07:00;12.57;;;10.40;;
5833;SDS011;2943;48.012;10.968;2023-06-10T01:09:33;11.50;;;10.40;;
5833;SDS011;2943;48.012;10.968;2023-06-10T01:12:10;10.57;;;9.50;;
5833;SDS011;2943;48.012;10.968;2023-06-10T01:14:44;16.63;;;11.53;;
5833;SDS011;2943;48.012;10.968;2023-06-10T01:17:11;11.00;;;9.90;;
5833;SDS011;2943;48.012;10.968;2023-06-10T01:19:41;15.43;;;10.33;;
5833;SDS011;2943;48.012;10.968;2023-06-10T01:22:10;10.87;;;9.63;;
5833;SDS011;2943;48.012;10.968;2023-06-10T01:24:40;16.00;;;10.43;;
5833;SDS011;2943;48.012;10.968;2023-06-10T01:27:09;17.80;;;10.80;;
5833;SDS011;2943;48.012;10.968;2023-06-10T01:29:41;10.33;;;9.33;;
5833;SDS011;2943;48.012;10.968;2023-06-10T01:32:12;10.20;;;9.20;;
5833;SDS011;2943;48.012;10.968;2023-06-10T01:34:43;13.97;;;10.47;;
5833;SDS011;2943;48.012;10.968;2023-06-10T01:37:13;11.87;;;9.70;;
5833;SDS011;2943;48.012;10.968;2023-06-10T01:39:42;11.37;;;9.60;;
5833;SDS011;2943;48.012;10.968;2023-06-10T01:42:09;10.23;;;9.17;;
5833;SDS011;2943;48.012;10.968;2023-06-10T01:44:38;10.40;;;9.40;;
5833;SDS011;2943;48.012;10.968;2023-06-10T01:47:07;10.13;;;9.13;;
5833;SDS011;2943;48.012;10.968;2023-06-10T01:49:34;9.57;;;8.60;;
5833;SDS011;2943;48.012;10.968;2023-06-10T01:52:01;21.73;;;8.50;;
5833;SDS011;2943;48.012;10.968;2023-06-10T01:54:29;14.63;;;8.67;;
5833;SDS011;2943;48.012;10.968;2023-06-10T01:56:56;10.00;;;9.00;;
5833;SDS011;2943;48.012;10.968;2023-06-10T01:59:23;11.50;;;8.80;;
5833;SDS011;2943;48.012;10.968;2023-06-10T02:01:49;9.20;;;8.37;;
5833;SDS011;2943;48.012;10.968;2023-06-10T02:04:16;10.27;;;9.17;;
5833;SDS011;2943;48.012;10.968;2023-06-10T02:06:43;13.30;;;8.80;;
5833;SDS011;2943;48.012;10.968;2023-06-10T02:09:10;11.87;;;8.70;;
5833;SDS011;2943;48.012;10.968;2023-06-10T02:11:39;10.30;;;9.20;;
5833;SDS011;2943;48.012;10.968;2023-06-10T02:14:06;9.47;;;8.07;;
5833;SDS011;2943;48.012;10.968;2023-06-10T02:16:32;10.63;;;9.57;;
5833;SDS011;2943;48.012;10.968;2023-06-10T02:18:59;9.70;;;8.70;;
5833;SDS011;2943;48.012;10.968;2023-06-10T02:21:28;9.70;;;8.73;;
5833;SDS011;2943;48.012;10.968;2023-06-10T02:23:55;9.80;;;8.63;;
5833;SDS011;2943;48.012;10.968;2023-06-10T02:26:21;9.93;;;8.87;;
5833;SDS011;2943;48.012;10.968;2023-06-10T02:28:52;11.00;;;8.90;;
5833;SDS011;2943;48.012;10.968;2023-06-10T02:31:20;10.10;;;9.10;;
5833;SDS011;2943;48.012;10.968;2023-06-10T02:33:50;17.30;;;9.73;;
5833;SDS011;2943;48.012;10.968;2023-06-10T02:36:17;9.43;;;8.43;;
5833;SDS011;2943;48.012;10.968;2023-06-10T02:38:43;9.90;;;8.90;;
5833;SDS011;2943;48.012;10.968;2023-06-10T02:41:10;9.67;;;8.40;;
5833;SDS011;2943;48.012;10.968;2023-06-10T02:43:37;11.23;;;9.03;;
5833;SDS011;2943;48.012;10.968;2023-06-10T02:46:05;10.87;;;9.33;;
5833;SDS011;2943;48.012;10.968;2023-06-10T02:48:38;11.53;;;8.87;;
5833;SDS011;2943;48.012;10.968;2023-06-10T02:51:08;10.67;;;9.53;;
5833;SDS011;2943;48.012;10.968;2023-06-10T02:53:34;18.50;;;9.50;;
5833;SDS011;2943;48.012;10.968;2023-06-10T02:56:01;12.00;;;10.20;;
5833;SDS011;2943;48.012;10.968;2023-06-10T02:58:28;14.30;;;9.93;;
5833;SDS011;2943;48.012;10.968;2023-06-10T03:00:55;10.47;;;9.47;;
5833;SDS011;2943;48.012;10.968;2023-06-10T03:03:25;9.40;;;8.20;;
5833;SDS011;2943;48.012;10.968;2023-06-10T03:05:52;10.80;;;9.63;;
5833;SDS011;2943;48.012;10.968;2023-06-10T03:08:19;10.87;;;9.77;;
5833;SDS011;2943;48.012;10.968;2023-06-10T03:10:46;11.00;;;9.67;;
5833;SDS011;2943;48.012;10.968;2023-06-10T03:13:13;11.33;;;9.90;;
5833;SDS011;2943;48.012;10.968;2023-06-10T03:15:40;11.50;;;10.30;;
5833;SDS011;2943;48.012;10.968;2023-06-10T03:18:07;12.87;;;10.30;;
5833;SDS011;2943;48.012;10.968;2023-06-10T03:20:35;11.17;;;9.40;;
5833;SDS011;2943;48.012;10.968;2023-06-10T03:23:03;9.93;;;8.93;;
5833;SDS011;2943;48.012;10.968;2023-06-10T03:25:31;15.60;;;9.80;;
5833;SDS011;2943;48.012;10.968;2023-06-10T03:27:58;11.07;;;9.70;;
5833;SDS011;2943;48.012;10.968;2023-06-10T03:30:25;10.00;;;9.00;;
5833;SDS011;2943;48.012;10.968;2023-06-10T03:32:51;10.40;;;9.40;;
5833;SDS011;2943;48.012;10.968;2023-06-10T03:35:18;9.83;;;8.93;;
5833;SDS011;2943;48.012;10.968;2023-06-10T03:37:47;11.30;;;10.03;;
5833;SDS011;2943;48.012;10.968;2023-06-10T03:40:14;10.57;;;9.47;;
5833;SDS011;2943;48.012;10.968;2023-06-10T03:42:41;11.40;;;10.20;;
5833;SDS011;2943;48.012;10.968;2023-06-10T03:45:09;15.33;;;9.97;;
5833;SDS011;2943;48.012;10.968;2023-06-10T03:47:37;11.30;;;9.43;;
5833;SDS011;2943;48.012;10.968;2023-06-10T03:50:05;10.30;;;9.30;;
5833;SDS011;2943;48.012;10.968;2023-06-10T03:52:33;13.60;;;9.80;;
5833;SDS011;2943;48.012;10.968;2023-06-10T03:55:01;11.37;;;10.13;;
5833;SDS011;2943;48.012;10.968;2023-06-10T03:57:28;10.67;;;9.57;;
5833;SDS011;2943;48.012;10.968;2023-06-10T03:59:55;11.60;;;10.50;;
5833;SDS011;2943;48.012;10.968;2023-06-10T04:02:22;15.57;;;11.40;;
5833;SDS011;2943;48.012;10.968;2023-06-10T04:04:49;10.27;;;9.10;;
5833;SDS011;2943;48.012;10.968;2023-06-10T04:07:16;16.80;;;10.20;;
5833;SDS011;2943;48.012;10.968;2023-06-10T04:09:45;10.97;;;9.80;;
5833;SDS011;2943;48.012;10.968;2023-06-10T04:12:14;10.40;;;9.40;;
5833;SDS011;2943;48.012;10.968;2023-06-10T04:14:41;11.63;;;9.60;;
5833;SDS011;2943;48.012;10.968;2023-06-10T04:17:08;11.63;;;10.53;;
5833;SDS011;2943;48.012;10.968;2023-06-10T04:19:35;13.43;;;9.30;;
5833;SDS011;2943;48.012;10.968;2023-06-10T04:22:02;11.93;;;10.03;;
5833;SDS011;2943;48.012;10.968;2023-06-10T04:24:30;11.50;;;10.30;;
5833;SDS011;2943;48.012;10.968;2023-06-10T04:26:57;12.03;;;10.83;;
5833;SDS011;2943;48.012;10.968;2023-06-10T04:29:25;12.10;;;10.80;;
5833;SDS011;2943;48.012;10.968;2023-06-10T04:31:52;11.60;;;10.40;;
5833;SDS011;2943;48.012;10.968;2023-06-10T04:34:19;10.60;;;9.50;;
5833;SDS011;2943;48.012;10.968;2023-06-10T04:36:45;10.87;;;9.50;;
5833;SDS011;2943;48.012;10.968;2023-06-10T04:39:12;11.40;;;10.20;;
5833;SDS011;2943;48.012;10.968;2023-06-10T04:41:41;11.23;;;10.13;;
5833;SDS011;2943;48.012;10.968;2023-06-10T04:44:08;11.67;;;10.57;;
5833;SDS011;2943;48.012;10.968;2023-06-10T04:46:37;11.20;;;9.80;;
5833;SDS011;2943;48.012;10.968;2023-06-10T04:49:04;12.20;;;10.27;;
5833;SDS011;2943;48.012;10.968;2023-06-10T04:51:31;11.13;;;10.00;;
5833;SDS011;2943;48.012;10.968;2023-06-10T04:53:58;12.93;;;10.73;;
5833;SDS011;2943;48.012;10.968;2023-06-10T04:56:27;12.30;;;10.23;;
5833;SDS011;2943;48.012;10.968;2023-06-10T04:58:55;12.87;;;11.27;;
5833;SDS011;2943;48.012;10.968;2023-06-10T05:01:21;14.80;;;11.40;;
5833;SDS011;2943;48.012;10.968;2023-06-10T05:03:50;13.00;;;10.90;;
5833;SDS011;2943;48.012;10.968;2023-06-10T05:06:17;11.80;;;10.60;;
5833;SDS011;2943;48.012;10.968;2023-06-10T05:08:43;17.00;;;10.33;;
5833;SDS011;2943;48.012;10.968;2023-06-10T05:11:10;12.53;;;11.33;;
5833;SDS011;2943;48.012;10.968;2023-06-10T05:13:37;15.13;;;12.00;;
5833;SDS011;2943;48.012;10.968;2023-06-10T05:16:05;11.73;;;10.53;;
5833;SDS011;2943;48.012;10.968;2023-06-10T05:18:32;14.20;;;12.70;;
5833;SDS011;2943;48.012;10.968;2023-06-10T05:21:02;14.60;;;11.00;;
5833;SDS011;2943;48.012;10.968;2023-06-10T05:23:29;13.00;;;11.60;;
5833;SDS011;2943;48.012;10.968;2023-06-10T05:25:55;12.30;;;11.00;;
5833;SDS011;2943;48.012;10.968;2023-06-10T05:28:23;14.13;;;11.60;;
5833;SDS011;2943;48.012;10.968;2023-06-10T05:30:50;15.47;;;12.80;;
5833;SDS011;2943;48.012;10.968;2023-06-10T05:33:17;15.57;;;12.60;;
5833;SDS011;2943;48.012;10.968;2023-06-10T05:35:44;16.07;;;11.57;;
5833;SDS011;2943;48.012;10.968;2023-06-10T05:38:12;15.13;;;12.70;;
5833;SDS011;2943;48.012;10.968;2023-06-10T05:40:39;14.93;;;12.20;;
5833;SDS011;2943;48.012;10.968;2023-06-10T05:43:06;14.30;;;11.50;;
5833;SDS011;2943;48.012;10.968;2023-06-10T05:45:34;14.77;;;12.70;;
5833;SDS011;2943;48.012;10.968;2023-06-10T05:48:01;14.77;;;13.10;;
5833;SDS011;2943;48.012;10.968;2023-06-10T05:50:28;15.97;;;12.40;;
5833;SDS011;2943;48.012;10.968;2023-06-10T05:52:55;15.03;;;12.90;;
5833;SDS011;2943;48.012;10.968;2023-06-10T05:55:24;15.30;;;13.10;;
5833;SDS011;2943;48.012;10.968;2023-06-10T05:57:57;14.17;;;12.60;;
5833;SDS011;2943;48.012;10.968;2023-06-10T06:00:25;16.90;;;12.07;;
5833;SDS011;2943;48.012;10.968;2023-06-10T06:02:52;13.90;;;12.40;;
5833;SDS011;2943;48.012;10.968;2023-06-10T06:05:20;15.50;;;12.37;;
5833;SDS011;2943;48.012;10.968;2023-06-10T06:07:47;14.53;;;11.87;;
5833;SDS011;2943;48.012;10.968;2023-06-10T06:10:14;14.40;;;12.90;;
5833;SDS011;2943;48.012;10.968;2023-06-10T06:12:44;21.03;;;12.20;;
5833;SDS011;2943;48.012;10.968;2023-06-10T06:15:11;15.40;;;12.20;;
5833;SDS011;2943;48.012;10.968;2023-06-10T06:17:38;14.03;;;12.40;;
5833;SDS011;2943;48.012;10.968;2023-06-10T06:20:05;13.83;;;11.73;;
5833;SDS011;2943;48.012;10.968;2023-06-10T06:22:33;12.87;;;11.57;;
5833;SDS011;2943;48.012;10.968;2023-06-10T06:24:59;13.20;;;11.80;;
5833;SDS011;2943;48.012;10.968;2023-06-10T06:27:26;12.80;;;11.50;;
5833;SDS011;2943;48.012;10.968;2023-06-10T06:29:55;16.73;;;12.23;;
5833;SDS011;2943;48.012;10.968;2023-06-10T06:32:22;13.37;;;11.93;;
5833;SDS011;2943;48.012;10.968;2023-06-10T06:34:51;13.17;;;11.87;;
5833;SDS011;2943;48.012;10.968;2023-06-10T06:37:19;16.23;;;12.90;;
5833;SDS011;2943;48.012;10.968;2023-06-10T06:39:47;15.10;;;11.60;;
5833;SDS011;2943;48.012;10.968;2023-06-10T06:42:14;14.20;;;12.70;;
5833;SDS011;2943;48.012;10.968;2023-06-10T06:44:41;15.10;;;11.27;;
5833;SDS011;2943;48.012;10.968;2023-06-10T06:47:10;14.23;;;10.63;;
5833;SDS011;2943;48.012;10.968;2023-06-10T06:49:37;14.03;;;10.30;;
5833;SDS011;2943;48.012;10.968;2023-06-10T06:52:04;13.00;;;9.17;;
5833;SDS011;2943;48.012;10.968;2023-06-10T06:54:31;11.93;;;9.93;;
5833;SDS011;2943;48.012;10.968;2023-06-10T06:56:58;10.43;;;9.13;;
5833;SDS011;2943;48.012;10.968;2023-06-10T06:59:25;9.87;;;8.57;;
5833;SDS011;2943;48.012;10.968;2023-06-10T07:01:52;9.90;;;8.70;;
5833;SDS011;2943;48.012;10.968;2023-06-10T07:04:21;11.33;;;9.00;;
5833;SDS011;2943;48.012;10.968;2023-06-10T07:06:48;10.33;;;9.10;;
5833;SDS011;2943;48.012;10.968;2023-06-10T07:09:15;10.70;;;9.40;;
5833;SDS011;2943;48.012;10.968;2023-06-10T07:11:42;8.63;;;7.73;;
5833;SDS011;2943;48.012;10.968;2023-06-10T07:14:09;7.70;;;6.90;;
5833;SDS011;2943;48.012;10.968;2023-06-10T07:16:35;9.40;;;7.87;;
5833;SDS011;2943;48.012;10.968;2023-06-10T07:19:02;7.83;;;7.03;;
5833;SDS011;2943;48.012;10.968;2023-06-10T07:21:31;8.93;;;7.93;;
5833;SDS011;2943;48.012;10.968;2023-06-10T07:23:58;8.73;;;7.83;;
5833;SDS011;2943;48.012;10.968;2023-06-10T07:26:25;8.87;;;7.90;;
5833;SDS011;2943;48.012;10.968;2023-06-10T07:28:52;10.93;;;8.57;;
5833;SDS011;2943;48.012;10.968;2023-06-10T07:31:19;9.43;;;8.43;;
5833;SDS011;2943;48.012;10.968;2023-06-10T07:33:46;9.23;;;8.33;;
5833;SDS011;2943;48.012;10.968;2023-06-10T07:36:13;9.40;;;7.73;;
5833;SDS011;2943;48.012;10.968;2023-06-10T07:38:42;11.00;;;8.03;;
5833;SDS011;2943;48.012;10.968;2023-06-10T07:41:08;8.93;;;8.03;;
5833;SDS011;2943;48.012;10.968;2023-06-10T07:43:36;9.63;;;7.10;;
5833;SDS011;2943;48.012;10.968;2023-06-10T07:46:03;8.30;;;7.20;;
5833;SDS011;2943;48.012;10.968;2023-06-10T07:48:31;8.13;;;7.33;;
5833;SDS011;2943;48.012;10.968;2023-06-10T07:50:58;7.90;;;7.10;;
5833;SDS011;2943;48.012;10.968;2023-06-10T07:53:24;9.73;;;6.47;;
5833;SDS011;2943;48.012;10.968;2023-06-10T07:55:53;8.20;;;7.37;;
5833;SDS011;2943;48.012;10.968;2023-06-10T07:58:20;7.20;;;6.50;;
5833;SDS011;2943;48.012;10.968;2023-06-10T08:00:47;13.83;;;7.07;;
5833;SDS011;2943;48.012;10.968;2023-06-10T08:03:14;7.53;;;6.80;;
5833;SDS011;2943;48.012;10.968;2023-06-10T08:05:41;8.13;;;6.57;;
5833;SDS011;2943;48.012;10.968;2023-06-10T08:08:08;7.77;;;6.10;;
5833;SDS011;2943;48.012;10.968;2023-06-10T08:10:35;6.90;;;6.20;;
5833;SDS011;2943;48.012;10.968;2023-06-10T08:13:03;7.23;;;6.53;;
5833;SDS011;2943;48.012;10.968;2023-06-10T08:15:30;6.67;;;5.97;;
5833;SDS011;2943;48.012;10.968;2023-06-10T08:17:57;7.97;;;6.40;;
5833;SDS011;2943;48.012;10.968;2023-06-10T08:20:24;7.03;;;6.33;;
5833;SDS011;2943;48.012;10.968;2023-06-10T08:22:50;7.27;;;6.00;;
5833;SDS011;2943;48.012;10.968;2023-06-10T08:25:17;7.20;;;6.33;;
5833;SDS011;2943;48.012;10.968;2023-06-10T08:27:47;7.30;;;6.60;;
5833;SDS011;2943;48.012;10.968;2023-06-10T08:30:17;9.90;;;6.00;;
5833;SDS011;2943;48.012;10.968;2023-06-10T08:32:44;6.83;;;6.10;;
5833;SDS011;2943;48.012;10.968;2023-06-10T08:35:11;7.23;;;6.50;;
5833;SDS011;2943;48.012;10.968;2023-06-10T08:37:38;7.33;;;6.60;;
5833;SDS011;2943;48.012;10.968;2023-06-10T08:40:08;7.60;;;6.80;;
5833;SDS011;2943;48.012;10.968;2023-06-10T08:42:38;7.57;;;6.83;;
5833;SDS011;2943;48.012;10.968;2023-06-10T08:45:10;7.67;;;6.70;;
5833;SDS011;2943;48.012;10.968;2023-06-10T08:47:44;7.10;;;6.40;;
5833;SDS011;2943;48.012;10.968;2023-06-10T08:50:12;7.53;;;6.73;;
5833;SDS011;2943;48.012;10.968;2023-06-10T08:52:40;9.20;;;6.20;;
5833;SDS011;2943;48.012;10.968;2023-06-10T08:55:10;6.90;;;6.27;;
5833;SDS011;2943;48.012;10.968;2023-06-10T08:57:40;16.70;;;8.47;;
5833;SDS011;2943;48.012;10.968;2023-06-10T09:00:10;10.10;;;7.53;;
5833;SDS011;2943;48.012;10.968;2023-06-10T09:02:38;8.93;;;6.93;;
5833;SDS011;2943;48.012;10.968;2023-06-10T09:05:07;8.33;;;7.43;;
5833;SDS011;2943;48.012;10.968;2023-06-10T09:07:35;8.53;;;7.70;;
5833;SDS011;2943;48.012;10.968;2023-06-10T09:10:02;11.80;;;7.93;;
5833;SDS011;2943;48.012;10.968;2023-06-10T09:12:32;7.73;;;6.90;;
5833;SDS011;2943;48.012;10.968;2023-06-10T09:15:00;10.53;;;6.80;;
5833;SDS011;2943;48.012;10.968;2023-06-10T09:17:27;9.53;;;7.13;;
5833;SDS011;2943;48.012;10.968;2023-06-10T09:19:54;7.97;;;6.10;;
5833;SDS011;2943;48.012;10.968;2023-06-10T09:22:23;7.20;;;6.40;;
5833;SDS011;2943;48.012;10.968;2023-06-10T09:24:51;9.50;;;7.60;;
5833;SDS011;2943;48.012;10.968;2023-06-10T09:27:29;7.93;;;7.17;;
5833;SDS011;2943;48.012;10.968;2023-06-10T09:29:56;9.93;;;6.77;;
5833;SDS011;2943;48.012;10.968;2023-06-10T09:32:24;7.03;;;6.37;;
5833;SDS011;2943;48.012;10.968;2023-06-10T09:34:51;10.43;;;8.00;;
5833;SDS011;2943;48.012;10.968;2023-06-10T09:37:21;8.13;;;7.33;;
5833;SDS011;2943;48.012;10.968;2023-06-10T09:40:00;7.40;;;6.50;;
5833;SDS011;2943;48.012;10.968;2023-06-10T09:42:34;6.53;;;5.83;;
5833;SDS011;2943;48.012;10.968;2023-06-10T09:45:03;6.57;;;5.73;;
5833;SDS011;2943;48.012;10.968;2023-06-10T09:47:31;6.67;;;5.97;;
5833;SDS011;2943;48.012;10.968;2023-06-10T09:49:58;9.87;;;6.77;;
5833;SDS011;2943;48.012;10.968;2023-06-10T09:52:28;8.30;;;7.40;;
5833;SDS011;2943;48.012;10.968;2023-06-10T09:54:58;6.70;;;5.50;;
5833;SDS011;2943;48.012;10.968;2023-06-10T09:57:30;6.90;;;6.10;;
5833;SDS011;2943;48.012;10.968;2023-06-10T09:59:57;6.23;;;5.43;;
5833;SDS011;2943;48.012;10.968;2023-06-10T10:02:24;6.53;;;5.93;;
5833;SDS011;2943;48.012;10.968;2023-06-10T10:04:51;6.10;;;5.50;;
5833;SDS011;2943;48.012;10.968;2023-06-10T10:07:18;7.17;;;5.53;;
5833;SDS011;2943;48.012;10.968;2023-06-10T10:09:47;7.30;;;5.37;;
5833;SDS011;2943;48.012;10.968;2023-06-10T10:12:16;5.67;;;5.17;;
5833;SDS011;2943;48.012;10.968;2023-06-10T10:14:45;5.73;;;4.50;;
5833;SDS011;2943;48.012;10.968;2023-06-10T10:17:14;5.57;;;5.00;;
5833;SDS011;2943;48.012;10.968;2023-06-10T10:19:43;7.03;;;5.57;;
5833;SDS011;2943;48.012;10.968;2023-06-10T10:22:15;6.43;;;5.83;;
5833;SDS011;2943;48.012;10.968;2023-06-10T10:24:49;6.33;;;5.73;;
5833;SDS011;2943;48.012;10.968;2023-06-10T10:27:17;5.47;;;4.93;;
5833;SDS011;2943;48.012;10.968;2023-06-10T10:29:48;5.90;;;5.33;;
5833;SDS011;2943;48.012;10.968;2023-06-10T10:32:18;5.17;;;4.77;;
5833;SDS011;2943;48.012;10.968;2023-06-10T10:34:49;6.30;;;5.70;;
5833;SDS011;2943;48.012;10.968;2023-06-10T10:37:20;7.03;;;5.70;;
5833;SDS011;2943;48.012;10.968;2023-06-10T10:39:48;7.60;;;5.30;;
5833;SDS011;2943;48.012;10.968;2023-06-10T10:42:16;5.53;;;5.03;;
5833;SDS011;2943;48.012;10.968;2023-06-10T10:44:44;5.33;;;4.77;;
5833;SDS011;2943;48.012;10.968;2023-06-10T10:47:12;5.17;;;4.67;;
5833;SDS011;2943;48.012;10.968;2023-06-10T10:49:42;6.13;;;5.40;;
5833;SDS011;2943;48.012;10.968;2023-06-10T10:52:11;4.80;;;4.40;;
5833;SDS011;2943;48.012;10.968;2023-06-10T10:54:39;4.70;;;4.30;;
5833;SDS011;2943;48.012;10.968;2023-06-10T10:57:12;9.60;;;3.90;;
5833;SDS011;2943;48.012;10.968;2023-06-10T10:59:43;6.70;;;4.30;;
5833;SDS011;2943;48.012;10.968;2023-06-10T11:02:15;4.60;;;4.20;;
5833;SDS011;2943;48.012;10.968;2023-06-10T11:04:44;5.10;;;4.70;;
5833;SDS011;2943;48.012;10.968;2023-06-10T11:07:12;5.07;;;4.57;;
5833;SDS011;2943;48.012;10.968;2023-06-10T11:09:46;5.57;;;4.07;;
5833;SDS011;2943;48.012;10.968;2023-06-10T11:12:26;11.03;;;4.83;;
5833;SDS011;2943;48.012;10.968;2023-06-10T11:15:05;3.90;;;3.60;;
5833;SDS011;2943;48.012;10.968;2023-06-10T11:17:32;6.17;;;4.33;;
5833;SDS011;2943;48.012;10.968;2023-06-10T11:19:59;5.60;;;4.90;;
5833;SDS011;2943;48.012;10.968;2023-06-10T11:22:26;5.33;;;4.67;;
5833;SDS011;2943;48.012;10.968;2023-06-10T11:24:53;5.00;;;4.43;;
5833;SDS011;2943;48.012;10.968;2023-06-10T11:27:21;4.10;;;3.80;;
5833;SDS011;2943;48.012;10.968;2023-06-10T11:29:57;6.00;;;4.40;;
5833;SDS011;2943;48.012;10.968;2023-06-10T11:32:38;4.73;;;4.33;;
5833;SDS011;2943;48.012;10.968;2023-06-10T11:35:08;5.13;;;3.93;;
5833;SDS011;2943;48.012;10.968;2023-06-10T11:37:35;4.97;;;4.47;;
5833;SDS011;2943;48.012;10.968;2023-06-10T11:40:02;6.10;;;4.17;;
5833;SDS011;2943;48.012;10.968;2023-06-10T11:42:32;5.00;;;3.90;;
5833;SDS011;2943;48.012;10.968;2023-06-10T11:45:01;4.77;;;4.30;;
5833;SDS011;2943;48.012;10.968;2023-06-10T11:47:28;4.73;;;4.33;;
5833;SDS011;2943;48.012;10.968;2023-06-10T11:49:55;5.90;;;4.37;;
5833;SDS011;2943;48.012;10.968;2023-06-10T11:52:26;5.90;;;4.70;;
5833;SDS011;2943;48.012;10.968;2023-06-10T11:54:54;4.93;;;4.43;;
5833;SDS011;2943;48.012;10.968;2023-06-10T11:57:21;4.93;;;4.53;;
5833;SDS011;2943;48.012;10.968;2023-06-10T11:59:48;4.43;;;4.03;;
5833;SDS011;2943;48.012;10.968;2023-06-10T12:02:16;4.53;;;4.13;;
5833;SDS011;2943;48.012;10.968;2023-06-10T12:04:45;3.97;;;3.67;;
5833;SDS011;2943;48.012;10.968;2023-06-10T12:07:16;5.00;;;4.50;;
5833;SDS011;2943;48.012;10.968;2023-06-10T12:09:44;4.77;;;4.37;;
5833;SDS011;2943;48.012;10.968;2023-06-10T12:12:11;4.23;;;3.83;;
5833;SDS011;2943;48.012;10.968;2023-06-10T12:14:51;4.30;;;4.00;;
5833;SDS011;2943;48.012;10.968;2023-06-10T12:17:27;6.17;;;3.97;;
5833;SDS011;2943;48.012;10.968;2023-06-10T12:20:03;4.53;;;4.13;;
5833;SDS011;2943;48.012;10.968;2023-06-10T12:22:35;4.30;;;3.93;;
5833;SDS011;2943;48.012;10.968;2023-06-10T12:25:04;3.63;;;3.33;;
5833;SDS011;2943;48.012;10.968;2023-06-10T12:27:32;3.77;;;3.43;;
5833;SDS011;2943;48.012;10.968;2023-06-10T12:30:01;4.10;;;3.67;;
5833;SDS011;2943;48.012;10.968;2023-06-10T12:32:37;3.83;;;3.50;;
5833;SDS011;2943;48.012;10.968;2023-06-10T12:35:05;3.87;;;3.57;;
5833;SDS011;2943;48.012;10.968;2023-06-10T12:37:33;3.80;;;3.50;;
5833;SDS011;2943;48.012;10.968;2023-06-10T12:40:01;3.80;;;3.23;;
5833;SDS011;2943;48.012;10.968;2023-06-10T12:42:31;3.77;;;3.43;;
5833;SDS011;2943;48.012;10.968;2023-06-10T12:44:59;3.77;;;3.47;;
5833;SDS011;2943;48.012;10.968;2023-06-10T12:47:30;4.63;;;3.50;;
5833;SDS011;2943;48.012;10.968;2023-06-10T12:50:01;4.13;;;3.40;;
5833;SDS011;2943;48.012;10.968;2023-06-10T12:52:29;4.10;;;3.70;;
5833;SDS011;2943;48.012;10.968;2023-06-10T12:54:57;3.60;;;3.30;;
5833;SDS011;2943;48.012;10.968;2023-06-10T12:57:25;3.37;;;3.17;;
5833;SDS011;2943;48.012;10.968;2023-06-10T12:59:52;3.20;;;3.00;;
5833;SDS011;2943;48.012;10.968;2023-06-10T13:02:21;2.93;;;2.73;;
5833;SDS011;2943;48.012;10.968;2023-06-10T13:04:49;3.37;;;3.07;;
5833;SDS011;2943;48.012;10.968;2023-06-10T13:07:17;4.10;;;3.80;;
5833;SDS011;2943;48.012;10.968;2023-06-10T13:09:44;3.50;;;3.20;;
5833;SDS011;2943;48.012;10.968;2023-06-10T13:12:13;3.50;;;3.20;;
5833;SDS011;2943;48.012;10.968;2023-06-10T13:14:42;3.80;;;3.50;;
5833;SDS011;2943;48.012;10.968;2023-06-10T13:17:09;3.53;;;3.23;;
5833;SDS011;2943;48.012;10.968;2023-06-10T13:19:36;4.50;;;3.50;;
5833;SDS011;2943;48.012;10.968;2023-06-10T13:22:03;3.50;;;3.20;;
5833;SDS011;2943;48.012;10.968;2023-06-10T13:24:31;3.73;;;3.43;;
5833;SDS011;2943;48.012;10.968;2023-06-10T13:26:58;3.50;;;3.20;;
5833;SDS011;2943;48.012;10.968;2023-06-10T13:29:25;3.13;;;2.93;;
5833;SDS011;2943;48.012;10.968;2023-06-10T13:31:51;6.30;;;4.00;;
5833;SDS011;2943;48.012;10.968;2023-06-10T13:34:18;4.40;;;3.97;;
5833;SDS011;2943;48.012;10.968;2023-06-10T13:36:45;3.47;;;2.93;;
5833;SDS011;2943;48.012;10.968;2023-06-10T13:39:12;5.33;;;3.40;;
5833;SDS011;2943;48.012;10.968;2023-06-10T13:41:41;3.33;;;3.10;;
5833;SDS011;2943;48.012;10.968;2023-06-10T13:44:08;4.07;;;3.77;;
5833;SDS011;2943;48.012;10.968;2023-06-10T13:46:34;6.60;;;3.63;;
5833;SDS011;2943;48.012;10.968;2023-06-10T13:49:01;3.57;;;3.27;;
5833;SDS011;2943;48.012;10.968;2023-06-10T13:51:28;3.37;;;3.10;;
5833;SDS011;2943;48.012;10.968;2023-06-10T13:53:55;5.43;;;3.63;;
5833;SDS011;2943;48.012;10.968;2023-06-10T13:56:22;3.70;;;3.40;;
5833;SDS011;2943;48.012;10.968;2023-06-10T13:58:50;4.27;;;3.90;;
5833;SDS011;2943;48.012;10.968;2023-06-10T14:01:17;3.80;;;3.50;;
5833;SDS011;2943;48.012;10.968;2023-06-10T14:03:44;4.80;;;3.47;;
5833;SDS011;2943;48.012;10.968;2023-06-10T14:06:11;4.53;;;3.83;;
5833;SDS011;2943;48.012;10.968;2023-06-10T14:08:43;4.30;;;3.90;;
5833;SDS011;2943;48.012;10.968;2023-06-10T14:11:10;4.33;;;3.93;;
5833;SDS011;2943;48.012;10.968;2023-06-10T14:13:37;5.23;;;4.60;;
5833;SDS011;2943;48.012;10.968;2023-06-10T14:16:06;4.40;;;4.00;;
5833;SDS011;2943;48.012;10.968;2023-06-10T14:18:33;6.23;;;4.73;;
5833;SDS011;2943;48.012;10.968;2023-06-10T14:20:59;7.00;;;4.90;;
5833;SDS011;2943;48.012;10.968;2023-06-10T14:23:26;10.40;;;4.20;;
5833;SDS011;2943;48.012;10.968;2023-06-10T14:25:53;4.53;;;4.10;;
5833;SDS011;2943;48.012;10.968;2023-06-10T14:28:20;5.87;;;4.30;;
5833;SDS011;2943;48.012;10.968;2023-06-10T14:30:49;8.40;;;5.73;;
5833;SDS011;2943;48.012;10.968;2023-06-10T14:33:17;4.93;;;4.53;;
5833;SDS011;2943;48.012;10.968;2023-06-10T14:35:44;9.03;;;4.53;;
5833;SDS011;2943;48.012;10.968;2023-06-10T14:38:10;4.23;;;3.90;;
5833;SDS011;2943;48.012;10.968;2023-06-10T14:40:37;3.90;;;3.60;;
5833;SDS011;2943;48.012;10.968;2023-06-10T14:43:04;3.63;;;3.33;;
5833;SDS011;2943;48.012;10.968;2023-06-10T14:45:34;4.10;;;3.80;;
5833;SDS011;2943;48.012;10.968;2023-06-10T14:48:01;4.80;;;4.30;;
5833;SDS011;2943;48.012;10.968;2023-06-10T14:50:30;4.63;;;4.17;;
5833;SDS011;2943;48.012;10.968;2023-06-10T14:52:57;5.93;;;4.23;;
5833;SDS011;2943;48.012;10.968;2023-06-10T14:55:24;6.18;;;4.28;;
5833;SDS011;2943;48.012;10.968;2023-06-10T14:57:51;4.75;;;4.35;;